createdAt,value
2018-02-01T00:02:11.646Z,92.38
2018-02-01T00:04:46.585Z,92.50
2018-02-01T00:07:21.622Z,92.48
2018-02-01T00:09:56.706Z,92.67
2018-02-01T00:12:31.582Z,92.61
2018-02-01T00:15:06.610Z,92.53
2018-02-01T00:17:41.741Z,92.52
2018-02-01T00:20:16.575Z,92.40
2018-02-01T00:22:51.579Z,92.35
2018-02-01T00:25:26.410Z,92.25
2018-02-01T00:28:01.396Z,92.21
2018-02-01T00:30:36.318Z,92.24
2018-02-01T00:33:11.139Z,92.63
2018-02-01T00:35:51.653Z,92.77
2018-02-01T00:38:26.320Z,93.09
2018-02-01T00:41:01.462Z,93.17
2018-02-01T00:43:36.796Z,93.38
2018-02-01T00:46:12.330Z,93.54
2018-02-01T00:48:47.272Z,93.58
2018-02-01T00:51:22.543Z,93.77
2018-02-01T00:53:57.346Z,94.12
2018-02-01T00:56:32.430Z,94.50
2018-02-01T00:59:07.767Z,94.59
2018-02-01T01:01:42.922Z,94.46
2018-02-01T01:04:17.512Z,94.62
2018-02-01T01:06:52.855Z,94.75
2018-02-01T01:09:27.578Z,94.95
2018-02-01T01:12:03.051Z,95.17
2018-02-01T01:14:38.547Z,95.25
2018-02-01T01:17:13.479Z,95.20
2018-02-01T01:19:48.370Z,95.23
2018-02-01T01:22:25.264Z,95.27
2018-02-01T01:25:00.550Z,95.31
2018-02-01T01:27:36.824Z,95.39
2018-02-01T01:30:11.550Z,95.26
2018-02-01T01:32:46.629Z,94.96
2018-02-01T01:35:21.458Z,94.56
2018-02-01T01:37:56.419Z,94.43
2018-02-01T01:40:31.025Z,94.16
2018-02-01T01:43:05.941Z,94.11
2018-02-01T01:45:40.308Z,93.88
2018-02-01T01:48:15.891Z,93.95
2018-02-01T01:50:50.911Z,93.86
2018-02-01T01:53:25.662Z,93.54
2018-02-01T01:56:00.615Z,93.58
2018-02-01T01:58:36.870Z,93.51
2018-02-01T02:01:11.898Z,93.45
2018-02-01T02:03:46.810Z,93.67
2018-02-01T02:06:21.875Z,93.69
2018-02-01T02:08:56.687Z,93.65
2018-02-01T02:11:31.696Z,93.61
2018-02-01T02:14:06.747Z,93.48
2018-02-01T02:16:41.816Z,93.31
2018-02-01T02:19:16.407Z,93.31
2018-02-01T02:21:51.068Z,93.36
2018-02-01T02:24:25.710Z,93.33
2018-02-01T02:27:00.841Z,93.63
2018-02-01T02:29:36.746Z,93.89
2018-02-01T02:32:11.143Z,94.09
2018-02-01T02:34:46.630Z,94.03
2018-02-01T02:37:21.716Z,94.35
2018-02-01T02:39:56.733Z,94.36
2018-02-01T02:42:31.763Z,94.42
2018-02-01T02:45:06.595Z,94.44
2018-02-01T02:47:41.932Z,94.48
2018-02-01T02:50:16.739Z,94.60
2018-02-01T02:52:51.992Z,94.67
2018-02-01T02:55:26.950Z,94.77
2018-02-01T02:58:01.908Z,94.82
2018-02-01T03:00:37.038Z,94.88
2018-02-01T03:03:11.787Z,94.87
2018-02-01T03:05:46.747Z,94.76
2018-02-01T03:08:21.786Z,94.75
2018-02-01T03:10:56.664Z,94.70
2018-02-01T03:13:31.789Z,94.49
2018-02-01T03:16:06.690Z,94.38
2018-02-01T03:18:41.765Z,94.47
2018-02-01T03:21:16.778Z,94.64
2018-02-01T03:23:51.656Z,94.58
2018-02-01T03:26:26.731Z,94.59
2018-02-01T03:29:02.280Z,94.67
2018-02-01T03:31:37.471Z,94.70
2018-02-01T03:34:12.864Z,94.59
2018-02-01T03:36:48.031Z,94.69
2018-02-01T03:39:22.910Z,94.67
2018-02-01T03:41:57.782Z,94.90
2018-02-01T03:44:32.786Z,95.07
2018-02-01T03:47:07.867Z,94.91
2018-02-01T03:49:43.094Z,94.99
2018-02-01T03:52:18.130Z,94.97
2018-02-01T03:54:53.270Z,95.02
2018-02-01T03:57:27.878Z,95.04
2018-02-01T04:00:02.934Z,95.13
2018-02-01T04:02:38.384Z,95.13
2018-02-01T04:05:13.004Z,95.01
2018-02-01T04:07:49.382Z,94.84
2018-02-01T04:10:24.082Z,94.94
2018-02-01T04:12:59.051Z,94.85
2018-02-01T04:15:34.058Z,94.62
2018-02-01T04:18:09.038Z,94.42
2018-02-01T04:20:43.518Z,94.39
2018-02-01T04:23:18.454Z,94.26
2018-02-01T04:25:53.578Z,94.23
2018-02-01T04:28:28.052Z,94.25
2018-02-01T04:31:03.036Z,94.22
2018-02-01T04:33:38.310Z,94.21
2018-02-01T04:36:13.015Z,94.08
2018-02-01T04:38:48.157Z,94.04
2018-02-01T04:41:23.062Z,94.20
2018-02-01T04:43:58.020Z,94.25
2018-02-01T04:46:33.098Z,94.20
2018-02-01T04:49:07.810Z,94.35
2018-02-01T04:51:43.424Z,94.17
2018-02-01T04:54:18.994Z,94.32
2018-02-01T04:56:53.420Z,94.29
2018-02-01T04:59:28.463Z,94.38
2018-02-01T05:02:03.258Z,94.37
2018-02-01T05:04:38.199Z,94.57
2018-02-01T05:07:13.267Z,94.51
2018-02-01T05:09:48.654Z,94.40
2018-02-01T05:12:23.314Z,94.43
2018-02-01T05:14:58.359Z,94.48
2018-02-01T05:17:32.994Z,94.32
2018-02-01T05:20:08.298Z,94.28
2018-02-01T05:22:43.306Z,94.14
2018-02-01T05:25:18.312Z,94.09
2018-02-01T05:27:54.598Z,94.13
2018-02-01T05:30:29.271Z,94.23
2018-02-01T05:33:04.210Z,94.27
2018-02-01T05:35:39.663Z,94.28
2018-02-01T05:38:15.106Z,94.35
2018-02-01T05:40:50.210Z,94.29
2018-02-01T05:43:25.172Z,94.22
2018-02-01T05:46:00.239Z,94.17
2018-02-01T05:48:34.584Z,94.12
2018-02-01T05:51:09.596Z,94.17
2018-02-01T05:53:44.661Z,94.01
2018-02-01T05:56:19.518Z,93.98
2018-02-01T05:58:54.700Z,94.14
2018-02-01T06:01:30.008Z,94.36
2018-02-01T06:04:05.071Z,94.35
2018-02-01T06:06:40.266Z,94.29
2018-02-01T06:09:15.223Z,94.14
2018-02-01T06:11:50.202Z,94.01
2018-02-01T06:14:25.282Z,93.93
2018-02-01T06:17:00.027Z,93.97
2018-02-01T06:19:35.242Z,94.08
2018-02-01T06:22:10.215Z,94.22
2018-02-01T06:24:45.514Z,94.22
2018-02-01T06:27:20.252Z,94.23
2018-02-01T06:29:55.224Z,94.21
2018-02-01T06:32:30.190Z,94.05
2018-02-01T06:35:05.291Z,94.16
2018-02-01T06:37:40.582Z,94.18
2018-02-01T06:40:15.402Z,94.12
2018-02-01T06:42:50.582Z,94.09
2018-02-01T06:45:25.447Z,94.06
2018-02-01T06:48:00.225Z,94.07
2018-02-01T06:50:35.256Z,93.94
2018-02-01T06:53:10.318Z,94.00
2018-02-01T06:55:45.531Z,94.13
2018-02-01T06:58:19.910Z,93.83
2018-02-01T07:00:55.716Z,94.11
2018-02-01T07:03:31.278Z,94.21
2018-02-01T07:06:06.272Z,93.94
2018-02-01T07:08:40.894Z,93.15
2018-02-01T07:11:16.394Z,92.93
2018-02-01T07:13:51.560Z,93.19
2018-02-01T07:16:26.462Z,93.12
2018-02-01T07:19:01.431Z,92.83
2018-02-01T07:21:37.762Z,92.90
2018-02-01T07:24:13.247Z,93.07
2018-02-01T07:26:48.347Z,93.06
2018-02-01T07:29:23.411Z,93.36
2018-02-01T07:31:58.403Z,93.24
2018-02-01T07:34:33.560Z,93.10
2018-02-01T07:37:08.606Z,93.22
2018-02-01T07:39:43.778Z,93.25
2018-02-01T07:42:18.712Z,92.82
2018-02-01T07:44:53.710Z,92.74
2018-02-01T07:47:27.988Z,92.71
2018-02-01T07:50:02.496Z,92.96
2018-02-01T07:52:37.839Z,92.75
2018-02-01T07:55:14.376Z,92.72
2018-02-01T07:57:49.566Z,92.94
2018-02-01T08:00:23.604Z,92.44
2018-02-01T08:02:58.868Z,92.34
2018-02-01T08:05:33.942Z,92.34
2018-02-01T08:08:09.419Z,92.69
2018-02-01T08:10:44.459Z,91.93
2018-02-01T08:13:19.438Z,91.76
2018-02-01T08:15:54.070Z,91.75
2018-02-01T08:18:29.455Z,91.72
2018-02-01T08:21:04.141Z,91.87
2018-02-01T08:23:39.748Z,91.39
2018-02-01T08:26:14.558Z,91.63
2018-02-01T08:28:49.125Z,91.27
2018-02-01T08:31:24.022Z,91.21
2018-02-01T08:33:58.884Z,90.71
2018-02-01T08:36:33.811Z,89.98
2018-02-01T08:39:08.266Z,90.08
2018-02-01T08:41:43.751Z,89.49
2018-02-01T08:44:18.651Z,89.45
2018-02-01T08:46:53.484Z,90.00
2018-02-01T08:49:28.633Z,89.04
2018-02-01T08:52:03.399Z,88.64
2018-02-01T08:54:38.642Z,88.29
2018-02-01T08:57:13.622Z,89.12
2018-02-01T08:59:48.808Z,89.04
2018-02-01T09:02:23.659Z,87.22
2018-02-01T09:04:58.671Z,86.94
2018-02-01T09:07:33.660Z,86.77
2018-02-01T09:10:08.620Z,86.55
2018-02-01T09:12:43.139Z,87.78
2018-02-01T09:15:18.007Z,88.21
2018-02-01T09:17:52.959Z,87.42
2018-02-01T09:20:28.178Z,87.58
2018-02-01T09:23:03.052Z,87.93
2018-02-01T09:25:38.112Z,87.68
2018-02-01T09:28:13.014Z,88.42
2018-02-01T09:30:47.732Z,87.82
2018-02-01T09:33:22.766Z,88.28
2018-02-01T09:35:57.706Z,88.80
2018-02-01T09:38:32.841Z,89.35
2018-02-01T09:41:07.822Z,89.37
2018-02-01T09:43:46.115Z,89.13
2018-02-01T09:46:21.092Z,88.90
2018-02-01T09:49:05.346Z,88.69
2018-02-01T09:51:40.128Z,88.38
2018-02-01T09:54:15.655Z,88.66
2018-02-01T09:56:51.015Z,88.17
2018-02-01T09:59:25.394Z,87.19
2018-02-01T10:02:00.154Z,86.91
2018-02-01T10:04:35.270Z,86.45
2018-02-01T10:07:10.267Z,86.16
2018-02-01T10:09:45.003Z,85.92
2018-02-01T10:12:20.095Z,85.98
2018-02-01T10:14:55.062Z,85.02
2018-02-01T10:17:30.046Z,84.96
2018-02-01T10:20:05.289Z,85.01
2018-02-01T10:22:40.182Z,85.04
2018-02-01T10:25:14.771Z,85.17
2018-02-01T10:27:50.131Z,85.26
2018-02-01T10:30:25.043Z,84.83
2018-02-01T10:32:59.995Z,85.35
2018-02-01T10:35:34.996Z,84.64
2018-02-01T10:38:09.947Z,85.25
2018-02-01T10:40:45.034Z,85.54
2018-02-01T10:43:19.774Z,85.55
2018-02-01T10:45:55.118Z,85.06
2018-02-01T10:48:29.780Z,85.07
2018-02-01T10:51:04.470Z,85.49
2018-02-01T10:53:40.142Z,84.92
2018-02-01T10:56:17.068Z,84.99
2018-02-01T10:58:52.011Z,84.67
2018-02-01T11:01:26.886Z,84.20
2018-02-01T11:04:01.980Z,84.65
2018-02-01T11:06:37.678Z,84.45
2018-02-01T11:09:12.424Z,84.25
2018-02-01T11:11:48.247Z,84.00
2018-02-01T11:14:22.578Z,82.77
2018-02-01T11:16:58.182Z,81.00
2018-02-01T11:19:33.147Z,80.66
2018-02-01T11:22:07.930Z,80.32
2018-02-01T11:24:42.822Z,80.08
2018-02-01T11:27:17.280Z,78.90
2018-02-01T11:29:52.663Z,80.46
2018-02-01T11:32:27.238Z,81.33
2018-02-01T11:35:02.189Z,80.80
2018-02-01T11:37:38.121Z,80.85
2018-02-01T11:40:13.022Z,80.79
2018-02-01T11:42:47.586Z,81.12
2018-02-01T11:45:22.054Z,80.56
2018-02-01T11:47:57.309Z,80.46
2018-02-01T11:50:31.744Z,80.88
2018-02-01T11:53:07.065Z,81.06
2018-02-01T11:55:42.359Z,80.97
2018-02-01T11:58:17.226Z,81.44
2018-02-01T12:00:52.404Z,81.22
2018-02-01T12:03:27.222Z,81.56
2018-02-01T12:06:02.142Z,81.91
2018-02-01T12:08:38.422Z,82.43
2018-02-01T12:11:13.203Z,83.54
2018-02-01T12:13:48.192Z,84.21
2018-02-01T12:16:23.158Z,84.31
2018-02-01T12:18:58.067Z,84.99
2018-02-01T12:21:32.739Z,84.81
2018-02-01T12:24:06.960Z,86.27
2018-02-01T12:26:42.426Z,86.86
2018-02-01T12:29:17.167Z,87.69
2018-02-01T12:31:51.703Z,88.60
2018-02-01T12:34:27.043Z,89.36
2018-02-01T12:37:02.118Z,90.39
2018-02-01T12:39:36.798Z,91.09
2018-02-01T12:42:12.292Z,91.99
2018-02-01T12:44:46.770Z,92.05
2018-02-01T12:47:22.171Z,92.27
2018-02-01T12:49:57.283Z,92.89
2018-02-01T12:52:32.376Z,93.29
2018-02-01T12:55:07.568Z,93.55
2018-02-01T12:57:42.499Z,94.04
2018-02-01T13:00:17.432Z,94.35
2018-02-01T13:02:52.758Z,94.30
2018-02-01T13:05:28.432Z,94.46
2018-02-01T13:08:02.815Z,94.57
2018-02-01T13:10:38.677Z,94.69
2018-02-01T13:13:13.743Z,94.94
2018-02-01T13:15:48.698Z,95.12
2018-02-01T13:18:24.190Z,95.23
2018-02-01T13:20:59.284Z,95.38
2018-02-01T13:23:34.598Z,95.33
2018-02-01T13:26:09.617Z,95.55
2018-02-01T13:28:44.623Z,95.82
2018-02-01T13:31:19.587Z,95.41
2018-02-01T13:33:55.239Z,95.31
2018-02-01T13:36:30.350Z,95.42
2018-02-01T13:39:04.788Z,94.67
2018-02-01T13:41:40.059Z,94.76
2018-02-01T13:44:15.350Z,94.74
2018-02-01T13:46:51.750Z,93.87
2018-02-01T13:49:26.387Z,93.28
2018-02-01T13:52:01.004Z,93.45
2018-02-01T13:54:35.818Z,93.64
2018-02-01T13:57:10.609Z,93.35
2018-02-01T13:59:45.713Z,92.98
2018-02-01T14:02:20.534Z,92.62
2018-02-01T14:04:55.496Z,92.57
2018-02-01T14:07:30.531Z,92.64
2018-02-01T14:10:05.551Z,92.36
2018-02-01T14:12:40.780Z,92.34
2018-02-01T14:15:15.626Z,92.15
2018-02-01T14:17:50.692Z,92.27
2018-02-01T14:20:25.385Z,92.21
2018-02-01T14:22:59.866Z,92.09
2018-02-01T14:25:34.743Z,92.03
2018-02-01T14:28:09.324Z,90.98
2018-02-01T14:30:44.729Z,90.35
2018-02-01T14:33:19.582Z,90.04
2018-02-01T14:35:54.756Z,89.43
2018-02-01T14:38:29.614Z,89.27
2018-02-01T14:41:04.746Z,89.07
2018-02-01T14:43:39.811Z,89.08
2018-02-01T14:46:14.720Z,89.03
2018-02-01T14:48:50.005Z,89.06
2018-02-01T14:51:24.702Z,88.27
2018-02-01T14:53:59.800Z,88.06
2018-02-01T14:56:34.744Z,87.46
2018-02-01T14:59:09.723Z,87.18
2018-02-01T15:01:44.902Z,87.25
2018-02-01T15:04:19.660Z,87.39
2018-02-01T15:06:54.690Z,86.98
2018-02-01T15:09:29.635Z,86.81
2018-02-01T15:12:05.627Z,86.17
2018-02-01T15:14:40.903Z,86.94
2018-02-01T15:17:15.624Z,86.87
2018-02-01T15:19:50.802Z,87.12
2018-02-01T15:22:25.363Z,86.78
2018-02-01T15:25:00.214Z,86.94
2018-02-01T15:27:35.634Z,87.54
2018-02-01T15:30:10.687Z,88.89
2018-02-01T15:32:45.548Z,89.62
2018-02-01T15:35:20.497Z,90.18
2018-02-01T15:37:55.948Z,90.89
2018-02-01T15:40:30.842Z,91.15
2018-02-01T15:43:05.839Z,91.00
2018-02-01T15:45:40.750Z,91.19
2018-02-01T15:48:15.814Z,91.57
2018-02-01T15:50:51.094Z,92.07
2018-02-01T15:53:25.616Z,92.22
2018-02-01T15:56:00.745Z,92.07
2018-02-01T15:58:35.821Z,92.04
2018-02-01T16:01:10.783Z,91.98
2018-02-01T16:03:45.848Z,91.92
2018-02-01T16:06:20.862Z,92.12
2018-02-01T16:08:55.722Z,92.13
2018-02-01T16:11:30.696Z,92.32
2018-02-01T16:14:05.679Z,92.39
2018-02-01T16:16:40.569Z,92.47
2018-02-01T16:19:15.302Z,92.56
2018-02-01T16:21:50.325Z,92.73
2018-02-01T16:24:25.726Z,92.85
2018-02-01T16:27:00.902Z,92.64
2018-02-01T16:29:35.903Z,92.55
2018-02-01T16:32:10.910Z,92.69
2018-02-01T16:34:45.036Z,92.54
2018-02-01T16:37:19.452Z,92.70
2018-02-01T16:39:54.436Z,92.74
2018-02-01T16:42:29.968Z,92.92
2018-02-01T16:45:04.518Z,92.98
2018-02-01T16:47:39.952Z,92.89
2018-02-01T16:50:14.935Z,92.84
2018-02-01T16:52:49.984Z,93.14
2018-02-01T16:55:25.075Z,93.07
2018-02-01T16:58:00.020Z,93.32
2018-02-01T17:00:35.178Z,93.56
2018-02-01T17:03:10.208Z,93.74
2018-02-01T17:05:45.200Z,93.74
2018-02-01T17:08:20.230Z,93.64
2018-02-01T17:10:55.444Z,93.54
2018-02-01T17:13:30.416Z,93.78
2018-02-01T17:16:04.950Z,94.15
2018-02-01T17:18:40.257Z,94.47
2018-02-01T17:21:15.546Z,94.71
2018-02-01T17:23:50.427Z,94.86
2018-02-01T17:26:25.190Z,94.88
2018-02-01T17:29:00.203Z,94.58
2018-02-01T17:31:35.214Z,94.36
2018-02-01T17:34:10.143Z,94.68
2018-02-01T17:36:45.342Z,94.56
2018-02-01T17:39:20.343Z,94.68
2018-02-01T17:41:55.951Z,94.72
2018-02-01T17:44:30.526Z,94.75
2018-02-01T17:47:05.527Z,94.99
2018-02-01T17:49:40.588Z,94.72
2018-02-01T17:52:15.655Z,94.79
2018-02-01T17:54:50.583Z,94.94
2018-02-01T17:57:25.591Z,94.84
2018-02-01T18:00:00.590Z,94.85
2018-02-01T18:02:35.502Z,94.87
2018-02-01T18:05:10.324Z,94.87
2018-02-01T18:07:45.431Z,94.75
2018-02-01T18:10:20.226Z,94.81
2018-02-01T18:12:55.518Z,94.83
2018-02-01T18:15:30.362Z,94.88
2018-02-01T18:18:05.227Z,94.89
2018-02-01T18:20:40.022Z,94.64
2018-02-01T18:23:14.718Z,94.42
2018-02-01T18:25:49.500Z,94.13
2018-02-01T18:28:24.576Z,94.44
2018-02-01T18:30:59.286Z,94.37
2018-02-01T18:33:33.760Z,94.47
2018-02-01T18:36:08.044Z,94.39
2018-02-01T18:38:43.590Z,94.39
2018-02-01T18:41:18.376Z,94.13
2018-02-01T18:43:53.590Z,94.08
2018-02-01T18:46:28.270Z,93.90
2018-02-01T18:49:03.269Z,93.35
2018-02-01T18:51:39.647Z,93.35
2018-02-01T18:54:14.434Z,93.39
2018-02-01T18:56:49.392Z,93.11
2018-02-01T18:59:24.452Z,92.83
2018-02-01T19:01:59.029Z,92.72
2018-02-01T19:04:34.420Z,92.75
2018-02-01T19:07:09.362Z,92.58
2018-02-01T19:09:44.607Z,92.49
2018-02-01T19:12:19.355Z,92.40
2018-02-01T19:14:54.398Z,92.13
2018-02-01T19:17:29.520Z,92.24
2018-02-01T19:20:04.506Z,91.96
2018-02-01T19:22:40.122Z,91.90
2018-02-01T19:25:14.492Z,92.17
2018-02-01T19:27:49.431Z,92.27
2018-02-01T19:30:24.792Z,92.39
2018-02-01T19:32:59.912Z,92.31
2018-02-01T19:35:34.823Z,92.40
2018-02-01T19:38:09.924Z,92.31
2018-02-01T19:40:45.491Z,92.43
2018-02-01T19:43:20.599Z,92.60
2018-02-01T19:45:55.382Z,92.66
2018-02-01T19:48:30.434Z,92.69
2018-02-01T19:51:05.420Z,92.86
2018-02-01T19:53:40.707Z,92.90
2018-02-01T19:56:15.543Z,92.78
2018-02-01T19:58:50.771Z,92.84
2018-02-01T20:01:25.568Z,92.96
2018-02-01T20:04:00.433Z,92.92
2018-02-01T20:06:35.473Z,92.83
2018-02-01T20:09:10.467Z,93.02
2018-02-01T20:11:45.730Z,92.90
2018-02-01T20:14:20.616Z,92.87
2018-02-01T20:16:55.958Z,92.94
2018-02-01T20:19:30.559Z,92.93
2018-02-01T20:22:05.518Z,92.81
2018-02-01T20:24:40.636Z,92.74
2018-02-01T20:27:20.326Z,92.37
2018-02-01T20:29:55.796Z,92.47
2018-02-01T20:32:30.651Z,92.69
2018-02-01T20:35:05.092Z,92.67
2018-02-01T20:37:40.154Z,92.61
2018-02-01T20:40:14.643Z,92.64
2018-02-01T20:42:49.720Z,92.66
2018-02-01T20:45:24.678Z,92.69
2018-02-01T20:47:59.638Z,92.76
2018-02-01T20:50:34.771Z,92.91
2018-02-01T20:53:09.858Z,93.06
2018-02-01T20:55:44.865Z,93.39
2018-02-01T20:58:19.429Z,93.53
2018-02-01T21:00:54.179Z,93.66
2018-02-01T21:03:29.243Z,93.71
2018-02-01T21:06:03.918Z,93.70
2018-02-01T21:08:40.237Z,93.83
2018-02-01T21:11:14.965Z,94.02
2018-02-01T21:13:50.118Z,94.13
2018-02-01T21:16:25.011Z,94.18
2018-02-01T21:19:00.097Z,94.32
2018-02-01T21:21:34.843Z,94.20
2018-02-01T21:24:09.759Z,94.04
2018-02-01T21:26:44.907Z,93.88
2018-02-01T21:29:19.790Z,93.85
2018-02-01T21:31:55.100Z,93.81
2018-02-01T21:34:30.083Z,93.91
2018-02-01T21:37:05.116Z,93.85
2018-02-01T21:39:40.272Z,93.83
2018-02-01T21:42:15.559Z,93.85
2018-02-01T21:44:50.215Z,93.75
2018-02-01T21:47:25.275Z,93.96
2018-02-01T21:50:00.192Z,93.99
2018-02-01T21:52:35.412Z,94.13
2018-02-01T21:55:10.795Z,94.19
2018-02-01T21:57:45.702Z,93.92
2018-02-01T22:00:20.765Z,94.00
2018-02-01T22:02:56.072Z,93.99
2018-02-01T22:05:31.031Z,94.03
2018-02-01T22:08:06.490Z,93.96
2018-02-01T22:10:42.074Z,93.82
2018-02-01T22:13:16.834Z,93.93
2018-02-01T22:15:51.900Z,94.14
2018-02-01T22:18:26.725Z,94.14
2018-02-01T22:21:01.404Z,94.04
2018-02-01T22:23:36.800Z,94.15
2018-02-01T22:26:11.799Z,94.21
2018-02-01T22:28:46.954Z,94.31
2018-02-01T22:31:21.990Z,94.42
2018-02-01T22:33:57.004Z,94.32
2018-02-01T22:36:31.979Z,94.29
2018-02-01T22:39:06.935Z,94.26
2018-02-01T22:41:41.927Z,94.07
2018-02-01T22:44:17.208Z,93.83
2018-02-01T22:46:52.375Z,93.82
2018-02-01T22:49:27.528Z,93.66
2018-02-01T22:52:02.884Z,93.64
2018-02-01T22:54:38.022Z,93.87
2018-02-01T22:57:13.014Z,93.72
2018-02-01T22:59:48.128Z,93.67
2018-02-01T23:02:22.814Z,93.28
2018-02-01T23:04:58.138Z,93.35
2018-02-01T23:07:33.454Z,93.46
2018-02-01T23:10:08.464Z,93.49
2018-02-01T23:12:43.607Z,93.46
2018-02-01T23:15:18.471Z,93.39
2018-02-01T23:17:53.754Z,93.23
2018-02-01T23:20:28.366Z,93.39
2018-02-01T23:23:03.450Z,93.57
2018-02-01T23:25:38.446Z,93.53
2018-02-01T23:28:13.520Z,93.29
2018-02-01T23:30:48.554Z,93.46
2018-02-01T23:33:23.403Z,93.39
2018-02-01T23:35:58.400Z,93.31
2018-02-01T23:38:33.156Z,93.27
2018-02-01T23:41:08.122Z,93.28
2018-02-01T23:43:43.056Z,93.10
2018-02-01T23:46:18.128Z,93.04
2018-02-01T23:48:53.418Z,93.16
2018-02-01T23:51:28.666Z,93.25
2018-02-01T23:54:04.206Z,93.21
2018-02-01T23:56:40.144Z,93.12
2018-02-01T23:59:15.086Z,93.11
